Time;durP1;ratioP1;P1;durP2;ratioP2;P2;SDS_P1;SDS_P2;PMS_P1;PMS_P2;Temp;Humidity;BMP_temperature;BMP_pressure;BME280_temperature;BME280_humidity;BME280_pressure;Samples;Min_cycle;Max_cycle;Signal;HPM_P1;HPM_P2
2021/12/02 00:00:37;;;;;;;0.57;0.57;;;6.10;99.90;;;;;;4960362;28;20022;-92
2021/12/02 00:03:06;;;;;;;0.50;0.50;;;6.00;99.90;;;;;;4960316;28;20037;-92
2021/12/02 00:05:32;;;;;;;0.38;0.38;;;6.00;99.90;;;;;;4960367;28;20033;-91
2021/12/02 00:07:57;;;;;;;0.65;0.65;;;6.00;99.90;;;;;;4960623;28;20469;-92
2021/12/02 00:10:28;;;;;;;0.20;0.20;;;6.00;99.90;;;;;;4960485;28;20038;-92
2021/12/02 00:12:56;;;;;;;0.70;0.70;;;6.00;99.90;;;;;;4960868;28;20069;-92
2021/12/02 00:15:25;;;;;;;0.22;0.22;;;5.90;99.90;;;;;;4960255;28;20033;-92
2021/12/02 00:18:07;;;;;;;0.73;0.60;;;5.90;99.90;;;;;;4960191;28;20026;-92
2021/12/02 00:23:34;;;;;;;1.00;0.82;;;5.90;99.90;;;;;;4976515;28;20314;-92
2021/12/02 00:26:03;;;;;;;1.27;0.82;;;5.90;99.90;;;;;;4959926;28;20026;-92
2021/12/02 00:28:30;;;;;;;0.38;0.38;;;5.90;99.90;;;;;;4960205;28;20033;-92
2021/12/02 00:30:58;;;;;;;0.20;0.20;;;5.90;99.90;;;;;;4960728;28;20026;-92
2021/12/02 00:33:26;;;;;;;0.13;0.13;;;5.90;99.90;;;;;;4961483;28;20034;-91
2021/12/02 00:35:52;;;;;;;1.35;0.57;;;6.00;99.90;;;;;;4961145;28;20030;-92
2021/12/02 00:38:20;;;;;;;0.22;0.22;;;6.00;99.90;;;;;;4961581;28;20022;-92
2021/12/02 00:40:46;;;;;;;0.30;0.30;;;5.90;99.90;;;;;;4961101;28;20030;-92
2021/12/02 00:43:13;;;;;;;0.20;0.20;;;5.90;99.90;;;;;;4961756;28;20041;-91
2021/12/02 00:45:40;;;;;;;0.35;0.35;;;5.90;99.90;;;;;;4964299;28;20419;-91
2021/12/02 00:48:10;;;;;;;0.38;0.32;;;6.00;99.90;;;;;;4961843;28;20081;-92
2021/12/02 00:50:46;;;;;;;0.90;0.90;;;5.90;99.90;;;;;;4959753;28;20129;-92
2021/12/02 00:53:12;;;;;;;2.33;0.60;;;5.90;99.90;;;;;;4959805;28;20037;-91
2021/12/02 00:55:40;;;;;;;0.30;0.30;;;5.90;99.90;;;;;;4970246;28;20030;-92
2021/12/02 00:58:06;;;;;;;0.20;0.20;;;5.90;99.90;;;;;;4959878;28;20541;-91
2021/12/02 01:00:33;;;;;;;0.20;0.20;;;5.80;99.90;;;;;;4959475;28;20198;-91
2021/12/02 01:03:00;;;;;;;0.20;0.20;;;5.90;99.90;;;;;;4959624;28;20023;-92
2021/12/02 01:05:27;;;;;;;7.32;4.05;;;5.90;99.90;;;;;;4960290;28;20554;-91
2021/12/02 01:07:53;;;;;;;0.28;0.28;;;5.90;99.90;;;;;;4963139;28;20491;-92
2021/12/02 01:10:20;;;;;;;0.88;0.30;;;5.90;99.90;;;;;;4963103;28;20031;-92
2021/12/02 01:12:47;;;;;;;0.40;0.40;;;5.90;99.90;;;;;;4963289;28;20045;-91
2021/12/02 01:15:13;;;;;;;0.20;0.20;;;5.80;99.90;;;;;;4962880;28;20033;-91
2021/12/02 01:17:39;;;;;;;0.55;0.55;;;5.90;99.90;;;;;;4962812;28;20026;-91
2021/12/02 01:20:06;;;;;;;0.20;0.20;;;5.90;99.90;;;;;;4962854;28;20077;-92
2021/12/02 01:22:36;;;;;;;0.30;0.30;;;5.90;99.90;;;;;;4963057;28;20173;-91
2021/12/02 01:25:04;;;;;;;5.68;0.30;;;5.90;99.90;;;;;;4963069;28;20049;-92
2021/12/02 01:27:32;;;;;;;0.20;0.20;;;5.80;99.90;;;;;;4962797;28;20031;-92
2021/12/02 01:29:59;;;;;;;0.30;0.30;;;5.80;99.90;;;;;;4962488;28;20097;-92
2021/12/02 01:32:26;;;;;;;0.20;0.20;;;5.90;99.90;;;;;;4962895;28;20049;-92
2021/12/02 01:34:53;;;;;;;0.30;0.30;;;5.80;99.90;;;;;;4962965;28;20092;-92
2021/12/02 01:37:19;;;;;;;0.20;0.20;;;5.80;99.90;;;;;;4962040;28;20030;-92
2021/12/02 01:39:47;;;;;;;0.20;0.20;;;5.80;99.90;;;;;;4962553;28;20498;-92
2021/12/02 01:42:23;;;;;;;0.20;0.20;;;5.80;99.90;;;;;;4962502;28;20053;-92
2021/12/02 01:44:52;;;;;;;0.20;0.20;;;5.80;99.90;;;;;;4963078;28;20022;-92
2021/12/02 01:47:22;;;;;;;0.60;0.52;;;5.80;99.90;;;;;;4962611;28;20030;-92
2021/12/02 01:49:51;;;;;;;0.22;0.22;;;5.70;99.90;;;;;;4962454;28;20022;-92
2021/12/02 01:52:24;;;;;;;0.20;0.20;;;5.70;99.90;;;;;;4962332;28;20367;-92
2021/12/02 01:54:59;;;;;;;0.63;0.63;;;5.70;99.90;;;;;;4962649;28;20030;-92
2021/12/02 01:57:34;;;;;;;0.30;0.30;;;5.70;99.90;;;;;;4962121;28;20454;-92
2021/12/02 02:00:17;;;;;;;0.20;0.20;;;5.60;99.90;;;;;;4962349;28;20022;-92
2021/12/02 02:02:43;;;;;;;0.20;0.20;;;5.60;99.90;;;;;;4962400;28;20065;-92
2021/12/02 02:05:12;;;;;;;0.30;0.30;;;5.60;99.90;;;;;;4961925;28;20062;-92
2021/12/02 02:08:00;;;;;;;0.20;0.20;;;5.60;99.90;;;;;;4961809;28;20022;-92
2021/12/02 02:10:27;;;;;;;2.13;0.52;;;5.70;99.90;;;;;;4962069;28;20081;-91
2021/12/02 02:12:59;;;;;;;0.30;0.30;;;5.60;99.90;;;;;;4962189;28;20067;-92
2021/12/02 02:15:26;;;;;;;0.30;0.30;;;5.50;99.90;;;;;;4961756;28;20033;-91
2021/12/02 02:18:25;;;;;;;0.30;0.30;;;5.50;99.90;;;;;;4962304;28;20050;-91
2021/12/02 02:20:55;;;;;;;0.28;0.28;;;5.40;99.90;;;;;;4973998;28;20042;-91
2021/12/02 02:23:21;;;;;;;0.63;0.63;;;5.50;99.90;;;;;;4961827;28;20032;-92
2021/12/02 02:25:47;;;;;;;0.20;0.20;;;5.40;99.90;;;;;;4961369;28;20395;-92
2021/12/02 02:28:14;;;;;;;0.30;0.30;;;5.40;99.90;;;;;;4967970;28;20027;-92
2021/12/02 02:30:39;;;;;;;0.20;0.20;;;5.40;99.90;;;;;;4975574;28;20483;-90
2021/12/02 02:33:06;;;;;;;0.60;0.60;;;5.40;99.90;;;;;;4967018;28;20141;-92
2021/12/02 02:35:31;;;;;;;0.30;0.30;;;5.40;99.90;;;;;;4962165;28;20034;-91
2021/12/02 02:37:59;;;;;;;0.68;0.68;;;5.40;99.90;;;;;;4961488;28;20022;-92
2021/12/02 02:40:26;;;;;;;1.17;0.43;;;5.50;99.90;;;;;;4961628;28;20101;-91
2021/12/02 02:42:58;;;;;;;0.40;0.40;;;5.40;99.90;;;;;;4961853;28;20033;-92
2021/12/02 02:45:24;;;;;;;1.55;0.50;;;5.40;99.90;;;;;;4961204;28;20413;-92
2021/12/02 02:47:50;;;;;;;0.20;0.20;;;5.40;99.90;;;;;;4961107;28;20027;-91
2021/12/02 02:50:17;;;;;;;0.20;0.20;;;5.50;99.90;;;;;;4961193;28;20106;-91
2021/12/02 02:52:44;;;;;;;0.20;0.20;;;5.50;99.90;;;;;;4971054;28;20023;-92
2021/12/02 02:55:14;;;;;;;0.20;0.20;;;5.50;99.90;;;;;;4961124;28;20396;-92
2021/12/02 02:57:53;;;;;;;0.20;0.20;;;5.60;99.90;;;;;;4960941;28;20033;-91
2021/12/02 03:00:25;;;;;;;0.20;0.20;;;5.60;99.90;;;;;;4960914;28;20022;-91
2021/12/02 03:05:29;;;;;;;0.20;0.20;;;5.50;99.90;;;;;;4976803;28;20107;-92
2021/12/02 03:07:59;;;;;;;0.30;0.30;;;5.50;99.90;;;;;;4960845;28;20018;-91
2021/12/02 03:13:34;;;;;;;0.85;0.45;;;5.40;99.90;;;;;;4976927;28;20030;-92
2021/12/02 03:18:43;;;;;;;0.50;0.50;;;5.40;99.90;;;;;;4977064;28;20030;-92
2021/12/02 03:21:23;;;;;;;0.20;0.20;;;5.40;99.90;;;;;;4960799;28;20076;-92
2021/12/02 03:23:55;;;;;;;0.20;0.20;;;5.50;99.90;;;;;;4960906;28;20022;-91
2021/12/02 03:26:21;;;;;;;0.45;0.45;;;5.50;99.90;;;;;;4960203;28;20053;-92
2021/12/02 03:28:48;;;;;;;0.20;0.20;;;5.50;99.90;;;;;;4960104;28;20031;-92
2021/12/02 03:31:15;;;;;;;0.30;0.30;;;5.40;99.90;;;;;;4960625;28;20029;-90
2021/12/02 03:33:41;;;;;;;0.30;0.30;;;5.50;99.90;;;;;;4961203;28;20117;-91
2021/12/02 03:36:09;;;;;;;0.20;0.20;;;5.50;99.90;;;;;;4962566;28;20034;-91
2021/12/02 03:38:34;;;;;;;0.20;0.20;;;5.40;99.90;;;;;;4962081;28;20029;-92
2021/12/02 03:41:00;;;;;;;0.20;0.20;;;5.50;99.90;;;;;;4960470;28;20034;-92
2021/12/02 03:43:27;;;;;;;0.20;0.20;;;5.40;99.90;;;;;;4960367;28;20023;-91
2021/12/02 03:45:54;;;;;;;0.20;0.20;;;5.50;99.90;;;;;;4960213;28;20041;-91
2021/12/02 03:48:20;;;;;;;0.20;0.20;;;5.50;99.90;;;;;;4960755;28;20030;-92
2021/12/02 03:50:45;;;;;;;0.25;0.25;;;5.50;99.90;;;;;;4960823;28;20022;-92
2021/12/02 03:53:11;;;;;;;0.30;0.30;;;5.60;99.90;;;;;;4960477;28;20509;-92
2021/12/02 03:55:37;;;;;;;0.20;0.20;;;5.70;99.90;;;;;;4960165;28;20030;-92
2021/12/02 03:58:03;;;;;;;0.30;0.30;;;5.50;99.90;;;;;;4960513;28;20034;-91
2021/12/02 04:00:28;;;;;;;0.30;0.30;;;5.50;99.90;;;;;;4960387;28;20105;-92
2021/12/02 04:02:54;;;;;;;0.57;0.57;;;5.50;99.90;;;;;;4960213;28;20022;-91
2021/12/02 04:05:20;;;;;;;0.20;0.20;;;5.40;99.90;;;;;;4959894;28;20030;-91
2021/12/02 04:07:45;;;;;;;0.20;0.20;;;5.40;99.90;;;;;;4959865;28;20022;-91
2021/12/02 04:10:11;;;;;;;0.60;0.57;;;5.40;99.90;;;;;;4960596;28;20441;-92
2021/12/02 04:12:57;;;;;;;0.10;0.10;;;5.30;99.90;;;;;;4960108;28;20019;-91
2021/12/02 04:15:27;;;;;;;0.30;0.30;;;5.30;99.90;;;;;;4959845;28;20037;-91
2021/12/02 04:17:53;;;;;;;0.13;0.13;;;5.30;99.90;;;;;;4960489;28;20792;-91
2021/12/02 04:20:22;;;;;;;0.20;0.20;;;5.30;99.90;;;;;;4959915;28;20065;-92
2021/12/02 04:22:52;;;;;;;0.20;0.20;;;5.30;99.90;;;;;;4959831;28;20058;-92
2021/12/02 04:25:19;;;;;;;0.40;0.40;;;5.30;99.90;;;;;;4960878;28;20030;-91
2021/12/02 04:27:45;;;;;;;0.15;0.15;;;5.40;99.90;;;;;;4959944;28;20487;-92
2021/12/02 04:30:14;;;;;;;0.20;0.20;;;5.30;99.90;;;;;;4959942;28;20471;-92
2021/12/02 04:32:40;;;;;;;0.20;0.20;;;5.30;99.90;;;;;;4959884;28;20024;-89
2021/12/02 04:35:07;;;;;;;0.20;0.20;;;5.30;99.90;;;;;;4959663;28;20395;-92
2021/12/02 04:37:33;;;;;;;0.20;0.20;;;5.50;99.90;;;;;;4959638;28;20388;-91
2021/12/02 04:39:59;;;;;;;0.13;0.13;;;5.50;99.90;;;;;;4959828;28;20081;-92
2021/12/02 04:42:25;;;;;;;0.20;0.20;;;5.40;99.90;;;;;;4963734;28;20493;-92
2021/12/02 04:44:51;;;;;;;0.20;0.20;;;5.40;99.90;;;;;;4963492;28;20043;-92
2021/12/02 04:47:17;;;;;;;0.20;0.20;;;5.40;99.90;;;;;;4963097;28;20022;-92
2021/12/02 04:49:43;;;;;;;0.15;0.15;;;5.40;99.90;;;;;;4963434;28;20023;-92
2021/12/02 04:52:09;;;;;;;0.20;0.20;;;5.40;99.90;;;;;;4963260;28;20424;-92
2021/12/02 04:54:35;;;;;;;1.38;0.65;;;5.50;99.90;;;;;;4963076;28;20026;-89
2021/12/02 04:57:01;;;;;;;0.22;0.22;;;5.50;99.90;;;;;;4962721;28;20029;-89
2021/12/02 04:59:27;;;;;;;0.60;0.60;;;5.50;99.90;;;;;;4963475;28;20026;-89
2021/12/02 05:01:52;;;;;;;0.20;0.20;;;5.50;99.90;;;;;;4963088;28;20018;-89
2021/12/02 05:04:18;;;;;;;0.20;0.20;;;5.30;99.90;;;;;;4963073;28;20030;-89
2021/12/02 05:06:44;;;;;;;0.20;0.20;;;5.30;99.90;;;;;;4962855;28;20026;-91
2021/12/02 05:09:10;;;;;;;0.75;0.75;;;5.30;99.90;;;;;;4962993;28;20030;-92
2021/12/02 05:11:38;;;;;;;0.20;0.20;;;5.30;99.90;;;;;;4962942;28;20117;-92
2021/12/02 05:14:04;;;;;;;0.30;0.30;;;5.30;99.90;;;;;;4963487;28;20026;-92
2021/12/02 05:16:29;;;;;;;0.40;0.40;;;5.30;99.90;;;;;;4962861;28;20031;-91
2021/12/02 05:18:55;;;;;;;0.52;0.52;;;5.20;99.90;;;;;;4967717;28;20026;-90
2021/12/02 05:21:21;;;;;;;0.20;0.20;;;5.30;99.90;;;;;;4974008;28;20018;-91
2021/12/02 05:23:52;;;;;;;1.45;1.38;;;5.40;99.90;;;;;;4966267;28;20349;-91
2021/12/02 05:26:18;;;;;;;0.20;0.20;;;5.30;99.90;;;;;;4963082;28;20478;-91
2021/12/02 05:28:44;;;;;;;4.75;0.93;;;5.30;99.90;;;;;;4964859;28;20084;-89
2021/12/02 05:31:10;;;;;;;0.50;0.50;;;5.20;99.90;;;;;;4966467;28;20054;-88
2021/12/02 05:33:35;;;;;;;0.25;0.25;;;5.30;99.90;;;;;;4964767;28;20113;-89
2021/12/02 05:36:01;;;;;;;5.32;0.75;;;5.30;99.90;;;;;;4973188;28;20146;-89
2021/12/02 05:38:27;;;;;;;0.20;0.20;;;5.20;99.90;;;;;;4962714;28;20643;-89
2021/12/02 05:40:52;;;;;;;0.35;0.35;;;5.20;99.90;;;;;;4963363;28;20121;-92
2021/12/02 05:43:18;;;;;;;0.30;0.30;;;5.20;99.90;;;;;;4963089;28;20049;-91
2021/12/02 05:45:44;;;;;;;0.55;0.55;;;5.20;99.90;;;;;;4962474;28;20513;-92
2021/12/02 05:48:10;;;;;;;0.40;0.40;;;5.10;99.90;;;;;;4962272;28;20033;-91
2021/12/02 05:53:03;;;;;;;0.30;0.30;;;5.00;99.90;;;;;;4992927;28;20130;-76
2021/12/02 05:55:29;;;;;;;0.40;0.40;;;5.00;99.90;;;;;;4993352;28;20525;-76
2021/12/02 05:57:55;;;;;;;0.20;0.20;;;5.00;99.90;;;;;;4994555;28;20029;-76
2021/12/02 06:00:21;;;;;;;1.15;0.50;;;5.10;99.90;;;;;;4993176;28;20054;-76
2021/12/02 06:02:47;;;;;;;0.30;0.30;;;5.10;99.90;;;;;;4994636;28;20056;-76
2021/12/02 06:05:19;;;;;;;0.20;0.20;;;5.10;99.90;;;;;;4994379;28;20023;-76
2021/12/02 06:07:49;;;;;;;0.30;0.30;;;5.00;99.90;;;;;;4994350;28;20148;-76
2021/12/02 06:10:16;;;;;;;0.30;0.30;;;5.10;99.90;;;;;;4994261;28;20026;-76
2021/12/02 06:12:41;;;;;;;0.20;0.20;;;4.90;99.90;;;;;;4993382;28;20097;-76
2021/12/02 06:15:08;;;;;;;0.32;0.32;;;4.80;99.90;;;;;;4994307;28;20097;-76
2021/12/02 06:17:35;;;;;;;0.30;0.30;;;4.60;99.90;;;;;;4992977;28;20054;-76
2021/12/02 06:20:05;;;;;;;0.28;0.28;;;4.60;99.90;;;;;;4992938;28;20026;-76
2021/12/02 06:22:31;;;;;;;0.20;0.20;;;4.50;99.90;;;;;;4994262;28;20467;-76
2021/12/02 06:27:51;;;;;;;0.45;0.45;;;4.60;99.90;;;;;;4994207;28;20444;-76
2021/12/02 06:30:18;;;;;;;0.38;0.38;;;4.60;99.90;;;;;;4992816;28;20030;-76
2021/12/02 06:32:44;;;;;;;0.20;0.20;;;4.60;99.90;;;;;;4993032;28;20394;-76
2021/12/02 06:35:11;;;;;;;0.20;0.20;;;4.60;99.90;;;;;;4994879;28;20038;-76
2021/12/02 06:37:38;;;;;;;0.30;0.30;;;4.60;99.90;;;;;;4993566;28;20541;-76
2021/12/02 06:40:05;;;;;;;0.20;0.20;;;4.60;99.90;;;;;;4976413;28;20030;-76
2021/12/02 06:42:31;;;;;;;0.20;0.20;;;4.60;99.90;;;;;;4992896;28;20019;-75
2021/12/02 06:44:57;;;;;;;0.30;0.30;;;4.50;99.90;;;;;;4993502;28;20493;-76
2021/12/02 06:47:29;;;;;;;0.20;0.20;;;4.50;99.90;;;;;;4992503;28;20139;-76
2021/12/02 06:49:56;;;;;;;0.20;0.20;;;4.50;99.90;;;;;;4990526;28;20023;-76
2021/12/02 06:52:23;;;;;;;0.20;0.20;;;4.50;99.90;;;;;;4991750;28;20035;-76
2021/12/02 06:54:49;;;;;;;0.38;0.38;;;4.60;99.90;;;;;;4992244;28;20058;-76
2021/12/02 06:57:17;;;;;;;0.40;0.40;;;4.70;99.90;;;;;;4993132;28;20439;-76
2021/12/02 06:59:44;;;;;;;0.20;0.20;;;4.60;99.90;;;;;;4991509;28;20062;-76
2021/12/02 07:02:10;;;;;;;0.25;0.25;;;4.60;99.90;;;;;;4992738;28;20065;-76
2021/12/02 07:04:36;;;;;;;0.20;0.20;;;4.70;99.90;;;;;;4993214;28;20486;-76
2021/12/02 07:07:02;;;;;;;0.20;0.20;;;4.60;99.90;;;;;;4992063;28;20490;-75
2021/12/02 07:09:27;;;;;;;0.40;0.40;;;4.50;99.90;;;;;;4992411;28;20054;-76
2021/12/02 07:11:53;;;;;;;0.22;0.22;;;4.50;99.90;;;;;;4991160;28;20541;-76
2021/12/02 07:14:20;;;;;;;0.38;0.35;;;4.40;99.90;;;;;;4991597;28;20026;-75
2021/12/02 07:16:46;;;;;;;0.28;0.28;;;4.40;99.90;;;;;;4991522;28;20497;-76
2021/12/02 07:19:13;;;;;;;0.40;0.40;;;4.40;99.90;;;;;;4991963;28;20022;-75
2021/12/02 07:21:40;;;;;;;0.20;0.20;;;4.40;99.90;;;;;;4975364;28;20109;-76
2021/12/02 07:24:13;;;;;;;1.65;0.43;;;4.50;99.90;;;;;;4975754;28;20034;-76
2021/12/02 07:26:41;;;;;;;0.25;0.25;;;4.50;99.90;;;;;;4992689;28;20085;-76
2021/12/02 07:29:11;;;;;;;0.20;0.20;;;4.40;99.90;;;;;;4992665;28;20069;-76
2021/12/02 07:31:39;;;;;;;0.20;0.20;;;4.40;99.90;;;;;;4989363;28;20069;-76
2021/12/02 07:34:06;;;;;;;0.30;0.30;;;4.50;99.90;;;;;;4991437;28;20466;-75
2021/12/02 07:36:33;;;;;;;0.40;0.40;;;4.40;99.90;;;;;;4991116;28;20028;-75
2021/12/02 07:39:08;;;;;;;0.20;0.20;;;4.20;99.90;;;;;;4991492;28;20027;-76
2021/12/02 07:41:35;;;;;;;0.20;0.20;;;4.10;99.90;;;;;;4991322;28;20034;-76
2021/12/02 07:44:01;;;;;;;0.30;0.30;;;4.10;99.90;;;;;;4992777;28;20472;-76
2021/12/02 07:46:27;;;;;;;0.40;0.40;;;4.10;99.90;;;;;;4991011;28;20066;-76
2021/12/02 07:48:54;;;;;;;0.30;0.30;;;4.10;99.90;;;;;;4973313;28;20022;-76
2021/12/02 07:51:22;;;;;;;0.20;0.20;;;4.10;99.90;;;;;;4989012;28;20118;-76
2021/12/02 07:53:49;;;;;;;0.20;0.20;;;4.10;99.90;;;;;;4991293;28;20033;-76
2021/12/02 07:56:17;;;;;;;0.20;0.20;;;4.10;99.90;;;;;;4994914;28;20492;-76
2021/12/02 07:58:44;;;;;;;0.25;0.25;;;4.00;99.90;;;;;;4974039;28;20045;-76
2021/12/02 08:01:11;;;;;;;0.30;0.30;;;4.10;99.90;;;;;;4986611;28;20019;-75
2021/12/02 08:03:43;;;;;;;0.30;0.30;;;4.10;99.90;;;;;;4989978;28;20050;-76
2021/12/02 08:06:11;;;;;;;0.20;0.20;;;4.10;99.90;;;;;;4990050;28;20034;-75
2021/12/02 08:08:37;;;;;;;0.20;0.20;;;4.20;99.90;;;;;;4991403;28;20447;-76
2021/12/02 08:11:05;;;;;;;0.75;0.52;;;4.20;99.90;;;;;;4993817;28;20034;-76
2021/12/02 08:13:31;;;;;;;0.20;0.20;;;4.20;99.90;;;;;;4990340;28;20037;-76
2021/12/02 08:15:58;;;;;;;0.30;0.30;;;4.20;99.90;;;;;;4978005;28;20034;-76
2021/12/02 08:18:23;;;;;;;1.42;1.35;;;4.20;99.90;;;;;;4994143;28;20027;-76
2021/12/02 08:20:49;;;;;;;5.53;2.03;;;4.50;99.90;;;;;;4993839;28;20022;-76
2021/12/02 08:23:15;;;;;;;0.20;0.20;;;4.40;99.90;;;;;;4993775;28;20385;-76
2021/12/02 08:25:41;;;;;;;0.20;0.20;;;4.40;99.90;;;;;;4993683;28;20022;-76
2021/12/02 08:28:07;;;;;;;2.45;1.33;;;4.40;99.90;;;;;;4997758;28;20109;-76
2021/12/02 08:30:34;;;;;;;1.58;0.65;;;4.40;99.90;;;;;;4994892;28;20486;-76
2021/12/02 08:33:02;;;;;;;0.30;0.30;;;4.30;99.90;;;;;;4977750;28;20106;-76
2021/12/02 08:35:28;;;;;;;0.20;0.20;;;4.30;99.90;;;;;;4994882;28;20061;-76
2021/12/02 08:37:59;;;;;;;0.20;0.20;;;4.30;99.90;;;;;;4995563;28;20022;-76
2021/12/02 08:40:33;;;;;;;0.30;0.30;;;4.50;99.90;;;;;;4977306;28;20426;-76
2021/12/02 08:43:00;;;;;;;0.25;0.25;;;4.70;99.90;;;;;;4993306;28;20026;-76
2021/12/02 08:45:27;;;;;;;0.52;0.52;;;4.80;99.90;;;;;;4993345;28;20030;-76
2021/12/02 08:47:54;;;;;;;0.28;0.28;;;4.70;99.90;;;;;;4977255;28;20050;-76
2021/12/02 08:50:20;;;;;;;0.30;0.30;;;4.80;99.90;;;;;;4993319;28;20492;-76
2021/12/02 08:52:49;;;;;;;0.28;0.28;;;4.80;99.90;;;;;;4996411;28;20033;-75
2021/12/02 08:55:17;;;;;;;0.40;0.40;;;4.90;99.90;;;;;;4994664;28;20068;-76
2021/12/02 08:57:44;;;;;;;3.03;2.38;;;5.00;99.90;;;;;;4994096;28;20022;-76
2021/12/02 09:00:12;;;;;;;0.38;0.38;;;5.20;99.90;;;;;;4993141;28;20023;-76
2021/12/02 09:02:38;;;;;;;0.20;0.20;;;5.20;99.90;;;;;;4994514;28;20069;-76
2021/12/02 09:05:05;;;;;;;4.57;2.92;;;5.40;99.90;;;;;;4994469;28;20054;-76
2021/12/02 09:07:32;;;;;;;32.00;1.48;;;5.40;99.90;;;;;;4993391;28;20018;-76
2021/12/02 09:09:57;;;;;;;0.20;0.20;;;5.50;99.90;;;;;;4976968;28;20103;-76
2021/12/02 09:12:24;;;;;;;0.35;0.35;;;5.60;99.90;;;;;;4994869;28;20121;-76
2021/12/02 09:14:51;;;;;;;0.20;0.20;;;5.70;99.90;;;;;;4992763;28;20026;-76
2021/12/02 09:17:17;;;;;;;0.35;0.35;;;6.00;99.90;;;;;;4992358;28;20422;-76
2021/12/02 09:19:43;;;;;;;0.10;0.10;;;6.40;99.90;;;;;;4992770;28;20113;-76
2021/12/02 09:22:09;;;;;;;0.20;0.20;;;6.70;99.90;;;;;;4994951;28;20097;-76
2021/12/02 09:24:36;;;;;;;0.20;0.20;;;6.90;99.90;;;;;;4992348;28;20414;-76
2021/12/02 09:27:02;;;;;;;0.25;0.25;;;7.10;99.90;;;;;;4992634;28;20034;-76
2021/12/02 09:29:28;;;;;;;0.30;0.30;;;6.90;99.90;;;;;;4992233;28;20053;-76
2021/12/02 09:31:55;;;;;;;2.92;0.40;;;7.10;99.90;;;;;;4995185;28;20435;-76
2021/12/02 09:34:21;;;;;;;0.40;0.40;;;7.20;99.90;;;;;;4996107;28;20028;-76
2021/12/02 09:36:48;;;;;;;0.20;0.20;;;7.20;99.90;;;;;;4992894;28;20116;-76
2021/12/02 09:39:15;;;;;;;0.20;0.20;;;7.00;99.90;;;;;;4991586;28;20033;-76
2021/12/02 09:41:43;;;;;;;0.30;0.30;;;7.10;99.90;;;;;;4988373;28;20034;-75
2021/12/02 09:44:10;;;;;;;0.20;0.20;;;7.30;99.90;;;;;;4993401;28;20459;-76
2021/12/02 09:46:39;;;;;;;0.65;0.65;;;7.00;99.90;;;;;;4991980;28;20482;-76
2021/12/02 09:49:07;;;;;;;1.00;0.75;;;7.20;99.90;;;;;;4991517;28;20077;-76
2021/12/02 09:52:29;;;;;;;0.30;0.30;;;7.50;99.90;;;;;;4993075;28;20120;-76
2021/12/02 09:54:28;;;;;;;0.77;0.50;;;7.50;99.70;;;;;;4985734;28;20050;-76
2021/12/02 09:56:57;;;;;;;0.10;0.10;;;7.90;98.90;;;;;;4989482;28;20080;-77
2021/12/02 09:59:28;;;;;;;15.68;1.30;;;8.00;97.80;;;;;;4977985;28;20022;-76
2021/12/02 10:02:04;;;;;;;0.10;0.10;;;8.40;96.80;;;;;;4993666;28;20023;-76
2021/12/02 10:04:39;;;;;;;0.20;0.20;;;8.40;94.80;;;;;;4992819;28;20026;-76
2021/12/02 10:07:17;;;;;;;0.10;0.10;;;8.50;93.70;;;;;;4992252;28;20109;-76
2021/12/02 10:09:54;;;;;;;0.30;0.30;;;8.60;93.40;;;;;;4971299;28;20038;-76
2021/12/02 10:12:23;;;;;;;0.10;0.10;;;9.10;92.00;;;;;;4975779;28;20033;-76
2021/12/02 10:14:55;;;;;;;0.10;0.10;;;9.40;89.90;;;;;;4992024;28;20129;-76
2021/12/02 10:17:32;;;;;;;0.20;0.20;;;8.90;90.70;;;;;;4993019;28;20386;-76
2021/12/02 10:20:30;;;;;;;0.10;0.10;;;8.70;91.10;;;;;;4991212;28;20022;-75
2021/12/02 10:25:59;;;;;;;1.20;1.10;;;10.10;83.80;;;;;;4991127;28;20062;-76
2021/12/02 10:28:28;;;;;;;0.20;0.20;;;9.40;82.40;;;;;;4987745;28;20060;-77
2021/12/02 10:30:56;;;;;;;0.20;0.20;;;9.30;85.80;;;;;;4991872;28;20034;-77
2021/12/02 10:33:35;;;;;;;0.20;0.20;;;9.60;85.10;;;;;;4991281;28;20121;-77
2021/12/02 10:36:03;;;;;;;0.15;0.15;;;9.50;86.20;;;;;;4985977;28;20106;-77
2021/12/02 10:38:33;;;;;;;0.10;0.10;;;9.80;85.10;;;;;;4992605;28;20542;-77
2021/12/02 10:41:09;;;;;;;0.20;0.20;;;9.60;84.50;;;;;;4991696;28;20034;-76
2021/12/02 10:43:36;;;;;;;0.10;0.10;;;9.70;83.70;;;;;;4992187;28;20084;-77
2021/12/02 10:46:17;;;;;;;0.10;0.10;;;9.50;84.30;;;;;;4992617;28;20545;-77
2021/12/02 10:48:51;;;;;;;0.20;0.20;;;9.00;85.30;;;;;;4975210;28;20026;-77
2021/12/02 10:51:36;;;;;;;0.10;0.10;;;8.60;87.80;;;;;;4992554;28;20041;-76
2021/12/02 10:54:12;;;;;;;0.20;0.20;;;8.40;89.70;;;;;;4991398;28;20076;-76
2021/12/02 10:56:38;;;;;;;2.97;1.10;;;8.20;88.80;;;;;;4992560;28;20487;-76
2021/12/02 10:59:23;;;;;;;0.20;0.20;;;8.10;89.80;;;;;;4975038;28;20033;-76
2021/12/02 11:01:48;;;;;;;0.20;0.20;;;7.50;89.40;;;;;;4987662;28;20030;-76
2021/12/02 11:04:14;;;;;;;0.22;0.22;;;7.40;91.00;;;;;;4991471;28;20026;-76
2021/12/02 11:06:44;;;;;;;0.30;0.30;;;7.30;91.20;;;;;;4975786;28;20482;-75
2021/12/02 11:09:24;;;;;;;0.28;0.28;;;7.40;91.00;;;;;;4995276;28;20046;-76
2021/12/02 11:12:08;;;;;;;0.45;0.40;;;7.30;91.90;;;;;;4992062;28;20033;-76
2021/12/02 11:14:36;;;;;;;0.80;0.80;;;7.10;91.10;;;;;;4987781;28;20486;-75
2021/12/02 11:17:13;;;;;;;1.15;0.25;;;6.90;91.60;;;;;;4991822;28;20080;-76
2021/12/02 11:19:43;;;;;;;1.40;0.95;;;6.70;91.70;;;;;;4992679;28;20544;-75
2021/12/02 11:22:12;;;;;;;0.20;0.20;;;6.50;92.10;;;;;;4988098;28;20386;-75
2021/12/02 11:24:38;;;;;;;0.20;0.20;;;6.50;92.50;;;;;;4991676;28;20394;-75
2021/12/02 11:27:09;;;;;;;0.43;0.40;;;6.50;92.80;;;;;;4991850;28;20045;-76
2021/12/02 11:29:47;;;;;;;0.20;0.20;;;6.50;92.30;;;;;;4991003;28;20030;-75
2021/12/02 11:32:28;;;;;;;0.20;0.20;;;6.40;92.90;;;;;;4990534;28;20041;-75
2021/12/02 11:35:13;;;;;;;0.50;0.50;;;6.40;93.50;;;;;;4992554;28;20037;-74
2021/12/02 11:37:41;;;;;;;0.38;0.38;;;6.40;92.40;;;;;;4988088;28;20034;-75
2021/12/02 11:40:12;;;;;;;0.98;0.40;;;6.40;93.00;;;;;;4992771;28;20126;-74
2021/12/02 11:42:38;;;;;;;0.20;0.20;;;6.60;93.00;;;;;;4990436;28;20030;-75
2021/12/02 11:45:07;;;;;;;0.20;0.20;;;6.70;92.90;;;;;;4978105;28;20029;-75
2021/12/02 11:47:34;;;;;;;0.20;0.20;;;7.10;93.80;;;;;;4991154;28;20569;-75
2021/12/02 11:50:01;;;;;;;0.40;0.40;;;7.30;92.50;;;;;;4991116;28;20385;-75
2021/12/02 11:52:27;;;;;;;2.85;0.57;;;7.90;91.70;;;;;;4989921;28;20030;-74
2021/12/02 11:54:55;;;;;;;0.10;0.10;;;8.00;89.70;;;;;;4991233;28;20409;-75
2021/12/02 11:57:21;;;;;;;0.10;0.10;;;8.00;90.70;;;;;;4989690;28;20027;-75
2021/12/02 11:59:47;;;;;;;2.38;0.63;;;8.50;90.30;;;;;;4994717;28;20336;-74
2021/12/02 12:02:17;;;;;;;0.15;0.15;;;8.80;88.00;;;;;;4989990;28;20028;-74
2021/12/02 12:04:59;;;;;;;0.25;0.25;;;9.20;88.30;;;;;;4990952;28;20026;-75
2021/12/02 12:07:38;;;;;;;0.10;0.10;;;9.30;86.00;;;;;;4973860;28;20162;-75
2021/12/02 12:10:13;;;;;;;0.20;0.20;;;9.00;87.50;;;;;;4986752;28;20022;-74
2021/12/02 12:12:42;;;;;;;0.10;0.10;;;8.60;88.30;;;;;;4973583;28;20031;-75
2021/12/02 12:15:33;;;;;;;6.07;0.65;;;8.30;89.90;;;;;;4991237;28;20026;-74
2021/12/02 12:18:00;;;;;;;0.30;0.30;;;8.00;90.30;;;;;;4987972;28;20490;-74
2021/12/02 12:20:56;;;;;;;0.20;0.20;;;7.70;90.70;;;;;;4973549;28;20109;-75
2021/12/02 12:23:43;;;;;;;0.22;0.22;;;7.70;91.20;;;;;;4991398;28;20027;-75
2021/12/02 12:26:17;;;;;;;0.30;0.30;;;7.50;90.60;;;;;;4977144;28;20040;-75
2021/12/02 12:32:19;;;;;;;0.20;0.20;;;7.30;89.70;;;;;;4990794;28;20042;-75
2021/12/02 12:34:56;;;;;;;2.08;0.30;;;7.20;90.50;;;;;;4987723;28;20069;-74
2021/12/02 12:37:47;;;;;;;0.20;0.20;;;7.30;90.80;;;;;;4989756;28;20552;-76
2021/12/02 12:40:41;;;;;;;0.20;0.20;;;7.30;90.40;;;;;;4988154;28;20038;-75
2021/12/02 12:43:07;;;;;;;0.20;0.20;;;7.50;91.40;;;;;;4989054;28;20022;-75
2021/12/02 12:45:41;;;;;;;0.70;0.30;;;7.70;90.10;;;;;;4989289;28;20485;-75
2021/12/02 12:48:30;;;;;;;0.20;0.20;;;7.60;88.10;;;;;;4991052;28;20026;-75
2021/12/02 12:51:21;;;;;;;0.20;0.20;;;7.70;89.50;;;;;;4993660;28;20022;-75
2021/12/02 12:53:50;;;;;;;0.35;0.30;;;8.00;89.90;;;;;;4990665;28;20536;-75
2021/12/02 12:56:25;;;;;;;0.10;0.10;;;8.00;90.30;;;;;;4990131;28;20030;-75
2021/12/02 12:58:59;;;;;;;0.20;0.20;;;7.70;90.80;;;;;;4990043;28;20022;-75
2021/12/02 13:01:27;;;;;;;0.30;0.30;;;7.60;91.20;;;;;;4992971;28;20375;-75
2021/12/02 13:04:24;;;;;;;0.20;0.20;;;7.30;90.60;;;;;;4994778;28;20513;-74
2021/12/02 13:07:09;;;;;;;3.72;2.15;;;7.30;91.60;;;;;;4979865;28;20043;-77
2021/12/02 13:09:44;;;;;;;0.20;0.20;;;7.40;94.80;;;;;;4994799;28;20153;-76
2021/12/02 13:12:13;;;;;;;0.20;0.20;;;7.40;91.20;;;;;;4977404;28;20030;-77
2021/12/02 13:14:42;;;;;;;0.55;0.55;;;7.50;91.20;;;;;;4993830;28;20112;-75
2021/12/02 13:17:40;;;;;;;0.22;0.22;;;7.60;91.60;;;;;;4978418;28;20522;-75
2021/12/02 13:20:20;;;;;;;0.10;0.10;;;7.60;90.80;;;;;;4994265;28;20053;-75
2021/12/02 13:23:06;;;;;;;0.10;0.10;;;7.70;90.80;;;;;;4993028;28;20056;-75
2021/12/02 13:25:47;;;;;;;0.52;0.52;;;7.50;90.70;;;;;;4992494;28;20062;-76
2021/12/02 13:28:19;;;;;;;0.25;0.25;;;7.20;91.00;;;;;;4992945;28;20026;-75
2021/12/02 13:30:50;;;;;;;0.68;0.68;;;6.90;92.10;;;;;;4994913;28;20030;-75
2021/12/02 13:33:16;;;;;;;0.63;0.63;;;6.60;92.70;;;;;;4977115;28;20137;-75